sensor_id;sensor_type;location;lat;lon;timestamp;P1;durP1;ratioP1;P2;durP2;ratioP2
76667;SDS011;65585;51.166;16.922;2024-03-02T00:00:26;89.85;;;46.15;;
76667;SDS011;65585;51.166;16.922;2024-03-02T00:05:39;81.93;;;42.92;;
76667;SDS011;65585;51.166;16.922;2024-03-02T00:08:06;89.07;;;49.20;;
76667;SDS011;65585;51.166;16.922;2024-03-02T00:10:37;86.60;;;47.75;;
76667;SDS011;65585;51.166;16.922;2024-03-02T00:18:31;80.88;;;45.10;;
76667;SDS011;65585;51.166;16.922;2024-03-02T00:20:58;89.35;;;47.72;;
76667;SDS011;65585;51.166;16.922;2024-03-02T00:23:24;88.90;;;46.85;;
76667;SDS011;65585;51.166;16.922;2024-03-02T00:25:53;87.68;;;45.70;;
76667;SDS011;65585;51.166;16.922;2024-03-02T00:28:21;95.80;;;49.00;;
76667;SDS011;65585;51.166;16.922;2024-03-02T00:33:37;91.25;;;49.20;;
76667;SDS011;65585;51.166;16.922;2024-03-02T00:36:03;91.22;;;49.50;;
76667;SDS011;65585;51.166;16.922;2024-03-02T00:38:30;92.28;;;48.78;;
76667;SDS011;65585;51.166;16.922;2024-03-02T00:40:58;92.65;;;49.38;;
76667;SDS011;65585;51.166;16.922;2024-03-02T00:46:16;90.40;;;48.17;;
76667;SDS011;65585;51.166;16.922;2024-03-02T00:48:48;92.13;;;46.80;;
76667;SDS011;65585;51.166;16.922;2024-03-02T00:51:21;97.45;;;48.22;;
76667;SDS011;65585;51.166;16.922;2024-03-02T00:53:49;92.18;;;48.28;;
76667;SDS011;65585;51.166;16.922;2024-03-02T00:56:16;92.78;;;50.97;;
76667;SDS011;65585;51.166;16.922;2024-03-02T00:58:42;95.75;;;49.38;;
76667;SDS011;65585;51.166;16.922;2024-03-02T01:01:08;94.28;;;47.58;;
76667;SDS011;65585;51.166;16.922;2024-03-02T01:03:35;91.28;;;47.50;;
76667;SDS011;65585;51.166;16.922;2024-03-02T01:06:02;92.40;;;49.85;;
76667;SDS011;65585;51.166;16.922;2024-03-02T01:08:29;88.97;;;44.88;;
76667;SDS011;65585;51.166;16.922;2024-03-02T01:10:56;87.18;;;45.97;;
76667;SDS011;65585;51.166;16.922;2024-03-02T01:13:22;88.00;;;45.30;;
76667;SDS011;65585;51.166;16.922;2024-03-02T01:15:49;89.32;;;50.72;;
76667;SDS011;65585;51.166;16.922;2024-03-02T01:18:15;87.00;;;44.45;;
76667;SDS011;65585;51.166;16.922;2024-03-02T01:20:41;83.63;;;46.20;;
76667;SDS011;65585;51.166;16.922;2024-03-02T01:23:07;85.50;;;46.63;;
76667;SDS011;65585;51.166;16.922;2024-03-02T01:25:33;81.32;;;43.47;;
76667;SDS011;65585;51.166;16.922;2024-03-02T01:27:59;83.45;;;45.78;;
76667;SDS011;65585;51.166;16.922;2024-03-02T01:30:25;92.45;;;47.97;;
76667;SDS011;65585;51.166;16.922;2024-03-02T01:32:51;83.25;;;45.33;;
76667;SDS011;65585;51.166;16.922;2024-03-02T01:35:17;91.47;;;46.83;;
76667;SDS011;65585;51.166;16.922;2024-03-02T01:37:43;86.60;;;46.85;;
76667;SDS011;65585;51.166;16.922;2024-03-02T01:40:09;83.30;;;45.65;;
76667;SDS011;65585;51.166;16.922;2024-03-02T01:42:36;94.03;;;48.63;;
76667;SDS011;65585;51.166;16.922;2024-03-02T01:45:06;89.55;;;47.17;;
76667;SDS011;65585;51.166;16.922;2024-03-02T01:47:33;86.72;;;47.30;;
76667;SDS011;65585;51.166;16.922;2024-03-02T01:49:59;86.82;;;47.17;;
76667;SDS011;65585;51.166;16.922;2024-03-02T01:52:26;93.30;;;47.47;;
76667;SDS011;65585;51.166;16.922;2024-03-02T01:54:52;88.70;;;49.40;;
76667;SDS011;65585;51.166;16.922;2024-03-02T01:57:19;89.05;;;47.80;;
76667;SDS011;65585;51.166;16.922;2024-03-02T01:59:45;86.32;;;47.50;;
76667;SDS011;65585;51.166;16.922;2024-03-02T02:02:16;87.18;;;48.75;;
76667;SDS011;65585;51.166;16.922;2024-03-02T02:04:42;84.03;;;48.78;;
76667;SDS011;65585;51.166;16.922;2024-03-02T02:07:09;86.47;;;46.47;;
76667;SDS011;65585;51.166;16.922;2024-03-02T02:09:35;82.30;;;45.90;;
76667;SDS011;65585;51.166;16.922;2024-03-02T02:12:01;82.85;;;46.17;;
76667;SDS011;65585;51.166;16.922;2024-03-02T02:14:28;91.20;;;47.78;;
76667;SDS011;65585;51.166;16.922;2024-03-02T02:16:55;87.05;;;49.25;;
76667;SDS011;65585;51.166;16.922;2024-03-02T02:19:20;85.35;;;49.80;;
76667;SDS011;65585;51.166;16.922;2024-03-02T02:21:46;89.05;;;46.20;;
76667;SDS011;65585;51.166;16.922;2024-03-02T02:24:12;86.38;;;47.55;;
76667;SDS011;65585;51.166;16.922;2024-03-02T02:26:39;80.85;;;45.83;;
76667;SDS011;65585;51.166;16.922;2024-03-02T02:29:04;92.43;;;49.20;;
76667;SDS011;65585;51.166;16.922;2024-03-02T02:31:37;88.85;;;47.05;;
76667;SDS011;65585;51.166;16.922;2024-03-02T02:34:06;88.75;;;49.15;;
76667;SDS011;65585;51.166;16.922;2024-03-02T02:36:33;87.28;;;45.55;;
76667;SDS011;65585;51.166;16.922;2024-03-02T02:39:00;83.55;;;45.70;;
76667;SDS011;65585;51.166;16.922;2024-03-02T02:41:32;82.65;;;45.40;;
76667;SDS011;65585;51.166;16.922;2024-03-02T02:43:58;87.80;;;45.50;;
76667;SDS011;65585;51.166;16.922;2024-03-02T02:46:24;84.40;;;46.28;;
76667;SDS011;65585;51.166;16.922;2024-03-02T02:48:50;86.50;;;45.83;;
76667;SDS011;65585;51.166;16.922;2024-03-02T02:51:19;86.57;;;45.88;;
76667;SDS011;65585;51.166;16.922;2024-03-02T02:53:44;94.63;;;46.17;;
76667;SDS011;65585;51.166;16.922;2024-03-02T02:56:11;86.68;;;46.42;;
76667;SDS011;65585;51.166;16.922;2024-03-02T02:58:36;86.88;;;45.95;;
76667;SDS011;65585;51.166;16.922;2024-03-02T03:01:03;88.25;;;45.88;;
76667;SDS011;65585;51.166;16.922;2024-03-02T03:03:29;91.68;;;46.22;;
76667;SDS011;65585;51.166;16.922;2024-03-02T03:05:56;85.47;;;45.20;;
76667;SDS011;65585;51.166;16.922;2024-03-02T03:08:22;89.93;;;45.53;;
76667;SDS011;65585;51.166;16.922;2024-03-02T03:10:49;87.60;;;44.85;;
76667;SDS011;65585;51.166;16.922;2024-03-02T03:13:15;93.22;;;46.95;;
76667;SDS011;65585;51.166;16.922;2024-03-02T03:15:41;92.20;;;48.72;;
76667;SDS011;65585;51.166;16.922;2024-03-02T03:18:07;87.97;;;46.22;;
76667;SDS011;65585;51.166;16.922;2024-03-02T03:20:33;95.75;;;46.97;;
76667;SDS011;65585;51.166;16.922;2024-03-02T03:22:59;103.32;;;49.50;;
76667;SDS011;65585;51.166;16.922;2024-03-02T03:25:26;102.63;;;49.80;;
76667;SDS011;65585;51.166;16.922;2024-03-02T03:27:51;112.10;;;51.50;;
76667;SDS011;65585;51.166;16.922;2024-03-02T03:30:18;114.35;;;53.72;;
76667;SDS011;65585;51.166;16.922;2024-03-02T03:32:44;117.65;;;58.00;;
76667;SDS011;65585;51.166;16.922;2024-03-02T03:35:10;106.38;;;52.10;;
76667;SDS011;65585;51.166;16.922;2024-03-02T03:37:38;115.72;;;53.17;;
76667;SDS011;65585;51.166;16.922;2024-03-02T03:40:04;112.05;;;52.50;;
76667;SDS011;65585;51.166;16.922;2024-03-02T03:42:39;109.22;;;53.28;;
76667;SDS011;65585;51.166;16.922;2024-03-02T03:45:06;95.80;;;49.90;;
76667;SDS011;65585;51.166;16.922;2024-03-02T03:47:32;100.55;;;48.17;;
76667;SDS011;65585;51.166;16.922;2024-03-02T03:49:59;90.32;;;46.90;;
76667;SDS011;65585;51.166;16.922;2024-03-02T03:52:25;89.32;;;44.85;;
76667;SDS011;65585;51.166;16.922;2024-03-02T03:54:51;89.15;;;44.42;;
76667;SDS011;65585;51.166;16.922;2024-03-02T03:57:17;82.65;;;43.15;;
76667;SDS011;65585;51.166;16.922;2024-03-02T03:59:43;88.35;;;44.30;;
76667;SDS011;65585;51.166;16.922;2024-03-02T04:02:09;85.47;;;45.53;;
76667;SDS011;65585;51.166;16.922;2024-03-02T04:04:37;81.78;;;42.85;;
76667;SDS011;65585;51.166;16.922;2024-03-02T04:07:03;81.00;;;46.40;;
76667;SDS011;65585;51.166;16.922;2024-03-02T04:09:30;79.78;;;41.72;;
76667;SDS011;65585;51.166;16.922;2024-03-02T04:11:55;85.18;;;44.53;;
76667;SDS011;65585;51.166;16.922;2024-03-02T04:14:21;78.35;;;41.70;;
76667;SDS011;65585;51.166;16.922;2024-03-02T04:16:47;72.90;;;42.88;;
76667;SDS011;65585;51.166;16.922;2024-03-02T04:19:13;81.53;;;42.28;;
76667;SDS011;65585;51.166;16.922;2024-03-02T04:21:39;83.78;;;42.67;;
76667;SDS011;65585;51.166;16.922;2024-03-02T04:24:05;74.53;;;42.22;;
76667;SDS011;65585;51.166;16.922;2024-03-02T04:26:31;77.80;;;41.25;;
76667;SDS011;65585;51.166;16.922;2024-03-02T04:28:57;80.88;;;42.97;;
76667;SDS011;65585;51.166;16.922;2024-03-02T04:31:23;73.97;;;40.00;;
76667;SDS011;65585;51.166;16.922;2024-03-02T04:33:49;79.03;;;40.78;;
76667;SDS011;65585;51.166;16.922;2024-03-02T04:36:15;73.45;;;41.13;;
76667;SDS011;65585;51.166;16.922;2024-03-02T04:38:41;83.25;;;40.25;;
76667;SDS011;65585;51.166;16.922;2024-03-02T04:41:07;85.65;;;41.38;;
76667;SDS011;65585;51.166;16.922;2024-03-02T04:43:33;75.93;;;38.70;;
76667;SDS011;65585;51.166;16.922;2024-03-02T04:46:00;81.90;;;40.95;;
76667;SDS011;65585;51.166;16.922;2024-03-02T04:48:26;80.78;;;44.67;;
76667;SDS011;65585;51.166;16.922;2024-03-02T04:50:52;86.78;;;43.15;;
76667;SDS011;65585;51.166;16.922;2024-03-02T04:53:18;77.07;;;40.35;;
76667;SDS011;65585;51.166;16.922;2024-03-02T04:55:44;72.25;;;39.40;;
76667;SDS011;65585;51.166;16.922;2024-03-02T04:58:19;75.20;;;40.38;;
76667;SDS011;65585;51.166;16.922;2024-03-02T05:00:45;76.82;;;40.03;;
76667;SDS011;65585;51.166;16.922;2024-03-02T05:03:12;78.95;;;39.85;;
76667;SDS011;65585;51.166;16.922;2024-03-02T05:05:39;72.35;;;38.50;;
76667;SDS011;65585;51.166;16.922;2024-03-02T05:08:05;76.60;;;39.15;;
76667;SDS011;65585;51.166;16.922;2024-03-02T05:10:32;65.55;;;36.80;;
76667;SDS011;65585;51.166;16.922;2024-03-02T05:12:57;74.65;;;39.58;;
76667;SDS011;65585;51.166;16.922;2024-03-02T05:15:25;73.68;;;39.40;;
76667;SDS011;65585;51.166;16.922;2024-03-02T05:17:51;73.50;;;38.15;;
76667;SDS011;65585;51.166;16.922;2024-03-02T05:20:17;72.50;;;38.70;;
76667;SDS011;65585;51.166;16.922;2024-03-02T05:22:43;67.20;;;37.63;;
76667;SDS011;65585;51.166;16.922;2024-03-02T05:25:09;68.85;;;36.53;;
76667;SDS011;65585;51.166;16.922;2024-03-02T05:27:35;66.05;;;35.42;;
76667;SDS011;65585;51.166;16.922;2024-03-02T05:30:02;67.68;;;36.20;;
76667;SDS011;65585;51.166;16.922;2024-03-02T05:32:29;73.22;;;39.20;;
76667;SDS011;65585;51.166;16.922;2024-03-02T05:34:55;65.47;;;37.65;;
76667;SDS011;65585;51.166;16.922;2024-03-02T05:37:21;64.72;;;34.05;;
76667;SDS011;65585;51.166;16.922;2024-03-02T05:39:47;66.50;;;39.35;;
76667;SDS011;65585;51.166;16.922;2024-03-02T05:42:13;82.97;;;39.63;;
76667;SDS011;65585;51.166;16.922;2024-03-02T05:44:39;73.88;;;36.47;;
76667;SDS011;65585;51.166;16.922;2024-03-02T05:47:05;83.03;;;40.05;;
76667;SDS011;65585;51.166;16.922;2024-03-02T05:49:34;80.38;;;40.88;;
76667;SDS011;65585;51.166;16.922;2024-03-02T05:52:01;77.45;;;41.30;;
76667;SDS011;65585;51.166;16.922;2024-03-02T05:54:27;80.28;;;40.28;;
76667;SDS011;65585;51.166;16.922;2024-03-02T05:56:53;76.82;;;38.72;;
76667;SDS011;65585;51.166;16.922;2024-03-02T05:59:19;74.20;;;39.05;;
76667;SDS011;65585;51.166;16.922;2024-03-02T06:01:46;78.65;;;38.85;;
76667;SDS011;65585;51.166;16.922;2024-03-02T06:04:12;79.22;;;39.67;;
76667;SDS011;65585;51.166;16.922;2024-03-02T06:06:39;86.18;;;40.25;;
76667;SDS011;65585;51.166;16.922;2024-03-02T06:09:06;83.45;;;41.85;;
76667;SDS011;65585;51.166;16.922;2024-03-02T06:11:38;89.35;;;44.15;;
76667;SDS011;65585;51.166;16.922;2024-03-02T06:14:06;97.53;;;43.10;;
76667;SDS011;65585;51.166;16.922;2024-03-02T06:16:33;96.18;;;44.95;;
76667;SDS011;65585;51.166;16.922;2024-03-02T06:19:00;94.10;;;44.17;;
76667;SDS011;65585;51.166;16.922;2024-03-02T06:21:26;90.43;;;44.70;;
76667;SDS011;65585;51.166;16.922;2024-03-02T06:23:53;99.28;;;46.65;;
76667;SDS011;65585;51.166;16.922;2024-03-02T06:26:19;86.82;;;44.92;;
76667;SDS011;65585;51.166;16.922;2024-03-02T06:28:45;93.35;;;46.53;;
76667;SDS011;65585;51.166;16.922;2024-03-02T06:31:11;88.65;;;44.00;;
76667;SDS011;65585;51.166;16.922;2024-03-02T06:33:38;88.78;;;44.92;;
76667;SDS011;65585;51.166;16.922;2024-03-02T06:36:07;82.28;;;45.22;;
76667;SDS011;65585;51.166;16.922;2024-03-02T06:38:35;83.80;;;42.90;;
76667;SDS011;65585;51.166;16.922;2024-03-02T06:41:01;84.45;;;43.42;;
76667;SDS011;65585;51.166;16.922;2024-03-02T06:43:27;93.25;;;44.30;;
76667;SDS011;65585;51.166;16.922;2024-03-02T06:45:52;84.85;;;43.55;;
76667;SDS011;65585;51.166;16.922;2024-03-02T06:48:19;82.43;;;41.97;;
76667;SDS011;65585;51.166;16.922;2024-03-02T06:50:48;81.13;;;44.03;;
76667;SDS011;65585;51.166;16.922;2024-03-02T06:53:15;82.85;;;40.78;;
76667;SDS011;65585;51.166;16.922;2024-03-02T06:55:45;80.53;;;40.75;;
76667;SDS011;65585;51.166;16.922;2024-03-02T06:58:12;74.85;;;39.67;;
76667;SDS011;65585;51.166;16.922;2024-03-02T07:00:38;69.18;;;40.05;;
76667;SDS011;65585;51.166;16.922;2024-03-02T07:03:04;70.97;;;39.25;;
76667;SDS011;65585;51.166;16.922;2024-03-02T07:05:30;67.82;;;38.22;;
76667;SDS011;65585;51.166;16.922;2024-03-02T07:07:56;73.72;;;39.40;;
76667;SDS011;65585;51.166;16.922;2024-03-02T07:10:22;69.13;;;37.97;;
76667;SDS011;65585;51.166;16.922;2024-03-02T07:12:49;71.25;;;37.88;;
76667;SDS011;65585;51.166;16.922;2024-03-02T07:15:14;68.05;;;37.15;;
76667;SDS011;65585;51.166;16.922;2024-03-02T07:17:52;70.50;;;40.13;;
76667;SDS011;65585;51.166;16.922;2024-03-02T07:20:18;68.78;;;37.65;;
76667;SDS011;65585;51.166;16.922;2024-03-02T07:22:44;69.85;;;36.78;;
76667;SDS011;65585;51.166;16.922;2024-03-02T07:25:10;66.25;;;35.10;;
76667;SDS011;65585;51.166;16.922;2024-03-02T07:27:37;66.45;;;35.60;;
76667;SDS011;65585;51.166;16.922;2024-03-02T07:30:04;66.25;;;37.55;;
76667;SDS011;65585;51.166;16.922;2024-03-02T07:32:31;61.88;;;35.25;;
76667;SDS011;65585;51.166;16.922;2024-03-02T07:34:56;62.47;;;35.17;;
76667;SDS011;65585;51.166;16.922;2024-03-02T07:37:23;60.40;;;35.03;;
76667;SDS011;65585;51.166;16.922;2024-03-02T07:39:49;64.05;;;34.70;;
76667;SDS011;65585;51.166;16.922;2024-03-02T07:42:16;58.50;;;33.58;;
76667;SDS011;65585;51.166;16.922;2024-03-02T07:44:43;56.13;;;32.10;;
76667;SDS011;65585;51.166;16.922;2024-03-02T07:47:11;56.67;;;33.30;;
76667;SDS011;65585;51.166;16.922;2024-03-02T07:49:36;60.55;;;35.75;;
76667;SDS011;65585;51.166;16.922;2024-03-02T07:52:03;55.08;;;33.10;;
76667;SDS011;65585;51.166;16.922;2024-03-02T07:54:29;55.45;;;32.60;;
76667;SDS011;65585;51.166;16.922;2024-03-02T07:56:55;52.75;;;31.23;;
76667;SDS011;65585;51.166;16.922;2024-03-02T07:59:21;54.75;;;32.38;;
76667;SDS011;65585;51.166;16.922;2024-03-02T08:01:48;53.42;;;31.10;;
76667;SDS011;65585;51.166;16.922;2024-03-02T08:04:15;56.63;;;31.95;;
76667;SDS011;65585;51.166;16.922;2024-03-02T08:06:41;56.35;;;32.42;;
76667;SDS011;65585;51.166;16.922;2024-03-02T08:09:07;52.25;;;31.23;;
76667;SDS011;65585;51.166;16.922;2024-03-02T08:11:36;51.65;;;31.45;;
76667;SDS011;65585;51.166;16.922;2024-03-02T08:14:05;57.72;;;33.67;;
76667;SDS011;65585;51.166;16.922;2024-03-02T08:16:31;56.03;;;31.02;;
76667;SDS011;65585;51.166;16.922;2024-03-02T08:18:58;52.85;;;30.95;;
76667;SDS011;65585;51.166;16.922;2024-03-02T08:21:25;47.95;;;28.88;;
76667;SDS011;65585;51.166;16.922;2024-03-02T08:23:51;52.05;;;29.17;;
76667;SDS011;65585;51.166;16.922;2024-03-02T08:26:17;46.80;;;30.33;;
76667;SDS011;65585;51.166;16.922;2024-03-02T08:28:43;47.10;;;29.15;;
76667;SDS011;65585;51.166;16.922;2024-03-02T08:31:09;47.40;;;28.70;;
76667;SDS011;65585;51.166;16.922;2024-03-02T08:33:35;46.30;;;27.25;;
76667;SDS011;65585;51.166;16.922;2024-03-02T08:36:01;46.70;;;28.35;;
76667;SDS011;65585;51.166;16.922;2024-03-02T08:38:28;42.67;;;27.52;;
76667;SDS011;65585;51.166;16.922;2024-03-02T08:40:54;48.10;;;29.33;;
76667;SDS011;65585;51.166;16.922;2024-03-02T08:43:22;53.20;;;32.40;;
76667;SDS011;65585;51.166;16.922;2024-03-02T08:45:50;45.33;;;29.45;;
76667;SDS011;65585;51.166;16.922;2024-03-02T08:48:16;45.70;;;28.00;;
76667;SDS011;65585;51.166;16.922;2024-03-02T08:50:43;51.33;;;30.42;;
76667;SDS011;65585;51.166;16.922;2024-03-02T08:53:09;52.40;;;28.70;;
76667;SDS011;65585;51.166;16.922;2024-03-02T08:55:35;48.88;;;29.05;;
76667;SDS011;65585;51.166;16.922;2024-03-02T08:58:01;45.08;;;27.70;;
76667;SDS011;65585;51.166;16.922;2024-03-02T09:00:27;50.97;;;29.00;;
76667;SDS011;65585;51.166;16.922;2024-03-02T09:02:53;44.47;;;28.30;;
76667;SDS011;65585;51.166;16.922;2024-03-02T09:05:19;41.95;;;26.63;;
76667;SDS011;65585;51.166;16.922;2024-03-02T09:07:45;40.95;;;25.42;;
76667;SDS011;65585;51.166;16.922;2024-03-02T09:10:11;44.38;;;25.85;;
76667;SDS011;65585;51.166;16.922;2024-03-02T09:12:38;40.40;;;25.55;;
76667;SDS011;65585;51.166;16.922;2024-03-02T09:15:05;40.72;;;24.73;;
76667;SDS011;65585;51.166;16.922;2024-03-02T09:17:34;43.40;;;25.38;;
76667;SDS011;65585;51.166;16.922;2024-03-02T09:20:00;41.55;;;25.63;;
76667;SDS011;65585;51.166;16.922;2024-03-02T09:22:27;39.20;;;25.17;;
76667;SDS011;65585;51.166;16.922;2024-03-02T09:24:53;35.47;;;24.17;;
76667;SDS011;65585;51.166;16.922;2024-03-02T09:27:18;36.50;;;24.30;;
76667;SDS011;65585;51.166;16.922;2024-03-02T09:29:45;38.97;;;25.52;;
76667;SDS011;65585;51.166;16.922;2024-03-02T09:32:12;42.60;;;25.70;;
76667;SDS011;65585;51.166;16.922;2024-03-02T09:34:39;44.40;;;24.02;;
76667;SDS011;65585;51.166;16.922;2024-03-02T09:37:06;41.90;;;25.38;;
76667;SDS011;65585;51.166;16.922;2024-03-02T09:39:32;43.75;;;24.63;;
76667;SDS011;65585;51.166;16.922;2024-03-02T09:41:58;46.70;;;25.27;;
76667;SDS011;65585;51.166;16.922;2024-03-02T09:44:28;37.53;;;23.33;;
76667;SDS011;65585;51.166;16.922;2024-03-02T09:46:56;34.10;;;22.30;;
76667;SDS011;65585;51.166;16.922;2024-03-02T09:51:48;37.22;;;23.20;;
76667;SDS011;65585;51.166;16.922;2024-03-02T09:54:18;35.08;;;22.13;;
76667;SDS011;65585;51.166;16.922;2024-03-02T09:56:44;36.45;;;22.88;;
76667;SDS011;65585;51.166;16.922;2024-03-02T09:59:10;34.42;;;22.30;;
76667;SDS011;65585;51.166;16.922;2024-03-02T10:01:37;39.03;;;21.40;;
76667;SDS011;65585;51.166;16.922;2024-03-02T10:04:03;38.15;;;21.77;;
76667;SDS011;65585;51.166;16.922;2024-03-02T10:06:30;38.72;;;24.02;;
76667;SDS011;65585;51.166;16.922;2024-03-02T10:08:57;37.85;;;23.33;;
76667;SDS011;65585;51.166;16.922;2024-03-02T10:14:08;39.53;;;22.90;;
76667;SDS011;65585;51.166;16.922;2024-03-02T10:16:39;35.33;;;20.83;;
76667;SDS011;65585;51.166;16.922;2024-03-02T10:19:15;31.95;;;21.83;;
76667;SDS011;65585;51.166;16.922;2024-03-02T10:21:46;35.40;;;23.95;;
76667;SDS011;65585;51.166;16.922;2024-03-02T10:24:15;31.23;;;20.73;;
76667;SDS011;65585;51.166;16.922;2024-03-02T10:26:41;34.67;;;21.35;;
76667;SDS011;65585;51.166;16.922;2024-03-02T10:29:09;33.65;;;22.85;;
76667;SDS011;65585;51.166;16.922;2024-03-02T10:31:39;38.15;;;23.95;;
76667;SDS011;65585;51.166;16.922;2024-03-02T10:34:07;30.20;;;19.55;;
76667;SDS011;65585;51.166;16.922;2024-03-02T10:36:34;34.15;;;20.98;;
76667;SDS011;65585;51.166;16.922;2024-03-02T10:39:01;37.03;;;21.35;;
76667;SDS011;65585;51.166;16.922;2024-03-02T10:41:33;31.48;;;21.52;;
76667;SDS011;65585;51.166;16.922;2024-03-02T10:44:04;35.03;;;20.23;;
76667;SDS011;65585;51.166;16.922;2024-03-02T10:46:31;30.17;;;20.88;;
76667;SDS011;65585;51.166;16.922;2024-03-02T10:51:29;28.17;;;18.80;;
76667;SDS011;65585;51.166;16.922;2024-03-02T10:54:01;32.58;;;20.73;;
76667;SDS011;65585;51.166;16.922;2024-03-02T10:56:31;28.88;;;18.83;;
76667;SDS011;65585;51.166;16.922;2024-03-02T11:01:50;30.85;;;21.75;;
76667;SDS011;65585;51.166;16.922;2024-03-02T11:04:17;33.75;;;19.90;;
76667;SDS011;65585;51.166;16.922;2024-03-02T11:06:48;27.15;;;19.50;;
76667;SDS011;65585;51.166;16.922;2024-03-02T11:09:16;35.97;;;20.08;;
76667;SDS011;65585;51.166;16.922;2024-03-02T11:11:45;30.92;;;20.33;;
76667;SDS011;65585;51.166;16.922;2024-03-02T11:14:18;37.67;;;19.95;;
76667;SDS011;65585;51.166;16.922;2024-03-02T11:16:47;32.58;;;18.25;;
76667;SDS011;65585;51.166;16.922;2024-03-02T11:19:14;30.95;;;19.42;;
76667;SDS011;65585;51.166;16.922;2024-03-02T11:21:40;29.85;;;20.02;;
76667;SDS011;65585;51.166;16.922;2024-03-02T11:26:51;30.08;;;19.35;;
76667;SDS011;65585;51.166;16.922;2024-03-02T11:32:02;26.95;;;16.35;;
76667;SDS011;65585;51.166;16.922;2024-03-02T11:34:29;25.92;;;16.52;;
76667;SDS011;65585;51.166;16.922;2024-03-02T11:36:56;26.77;;;17.13;;
76667;SDS011;65585;51.166;16.922;2024-03-02T11:39:25;26.33;;;17.55;;
76667;SDS011;65585;51.166;16.922;2024-03-02T11:41:51;26.98;;;17.73;;
76667;SDS011;65585;51.166;16.922;2024-03-02T11:44:17;28.67;;;17.35;;
76667;SDS011;65585;51.166;16.922;2024-03-02T11:46:45;28.00;;;17.13;;
76667;SDS011;65585;51.166;16.922;2024-03-02T11:49:14;25.45;;;16.05;;
76667;SDS011;65585;51.166;16.922;2024-03-02T11:51:50;24.77;;;15.80;;
76667;SDS011;65585;51.166;16.922;2024-03-02T11:54:20;21.45;;;14.10;;
76667;SDS011;65585;51.166;16.922;2024-03-02T11:56:46;19.73;;;14.73;;
76667;SDS011;65585;51.166;16.922;2024-03-02T11:59:13;26.25;;;15.57;;
76667;SDS011;65585;51.166;16.922;2024-03-02T12:01:39;24.95;;;16.30;;
76667;SDS011;65585;51.166;16.922;2024-03-02T12:04:05;24.88;;;15.30;;
76667;SDS011;65585;51.166;16.922;2024-03-02T12:06:32;28.25;;;16.17;;
76667;SDS011;65585;51.166;16.922;2024-03-02T12:08:58;27.95;;;16.80;;
76667;SDS011;65585;51.166;16.922;2024-03-02T12:11:24;24.67;;;16.27;;
76667;SDS011;65585;51.166;16.922;2024-03-02T12:13:53;23.77;;;16.30;;
76667;SDS011;65585;51.166;16.922;2024-03-02T12:16:24;29.25;;;16.73;;
76667;SDS011;65585;51.166;16.922;2024-03-02T12:18:51;24.80;;;15.60;;
76667;SDS011;65585;51.166;16.922;2024-03-02T12:21:16;24.33;;;17.35;;
76667;SDS011;65585;51.166;16.922;2024-03-02T12:23:43;23.48;;;14.75;;
76667;SDS011;65585;51.166;16.922;2024-03-02T12:26:09;24.63;;;14.65;;
76667;SDS011;65585;51.166;16.922;2024-03-02T12:28:35;22.23;;;14.82;;
76667;SDS011;65585;51.166;16.922;2024-03-02T12:31:01;22.38;;;14.35;;
76667;SDS011;65585;51.166;16.922;2024-03-02T12:33:27;19.90;;;13.63;;
76667;SDS011;65585;51.166;16.922;2024-03-02T12:35:56;24.50;;;14.20;;
76667;SDS011;65585;51.166;16.922;2024-03-02T12:38:22;21.08;;;13.30;;
76667;SDS011;65585;51.166;16.922;2024-03-02T12:40:51;16.75;;;12.77;;
76667;SDS011;65585;51.166;16.922;2024-03-02T12:43:17;18.35;;;13.32;;
76667;SDS011;65585;51.166;16.922;2024-03-02T12:45:44;22.75;;;15.02;;
76667;SDS011;65585;51.166;16.922;2024-03-02T12:48:10;19.98;;;12.98;;
76667;SDS011;65585;51.166;16.922;2024-03-02T12:50:37;25.17;;;14.27;;
76667;SDS011;65585;51.166;16.922;2024-03-02T12:53:03;23.20;;;13.68;;
76667;SDS011;65585;51.166;16.922;2024-03-02T12:55:29;22.50;;;13.57;;
76667;SDS011;65585;51.166;16.922;2024-03-02T12:57:55;21.35;;;13.55;;
76667;SDS011;65585;51.166;16.922;2024-03-02T13:00:22;21.63;;;13.30;;
76667;SDS011;65585;51.166;16.922;2024-03-02T13:02:49;19.75;;;13.55;;
76667;SDS011;65585;51.166;16.922;2024-03-02T13:05:16;21.38;;;15.30;;
76667;SDS011;65585;51.166;16.922;2024-03-02T13:07:42;20.42;;;13.07;;
76667;SDS011;65585;51.166;16.922;2024-03-02T13:10:08;20.88;;;14.07;;
76667;SDS011;65585;51.166;16.922;2024-03-02T13:12:35;22.67;;;13.48;;
76667;SDS011;65585;51.166;16.922;2024-03-02T13:15:02;20.38;;;14.10;;
76667;SDS011;65585;51.166;16.922;2024-03-02T13:17:29;23.45;;;14.45;;
76667;SDS011;65585;51.166;16.922;2024-03-02T13:19:55;22.33;;;13.20;;
76667;SDS011;65585;51.166;16.922;2024-03-02T13:22:22;24.02;;;13.77;;
76667;SDS011;65585;51.166;16.922;2024-03-02T13:24:49;20.75;;;13.15;;
76667;SDS011;65585;51.166;16.922;2024-03-02T13:27:16;18.55;;;13.38;;
76667;SDS011;65585;51.166;16.922;2024-03-02T13:29:45;20.60;;;14.40;;
76667;SDS011;65585;51.166;16.922;2024-03-02T13:32:14;22.65;;;14.10;;
76667;SDS011;65585;51.166;16.922;2024-03-02T13:34:41;21.85;;;13.52;;
76667;SDS011;65585;51.166;16.922;2024-03-02T13:37:07;19.60;;;12.73;;
76667;SDS011;65585;51.166;16.922;2024-03-02T13:39:33;21.20;;;13.63;;
76667;SDS011;65585;51.166;16.922;2024-03-02T13:42:08;21.60;;;13.75;;
76667;SDS011;65585;51.166;16.922;2024-03-02T13:44:36;22.60;;;14.27;;
76667;SDS011;65585;51.166;16.922;2024-03-02T13:47:03;22.05;;;14.02;;
76667;SDS011;65585;51.166;16.922;2024-03-02T13:49:30;20.70;;;14.88;;
76667;SDS011;65585;51.166;16.922;2024-03-02T13:52:02;20.33;;;13.18;;
76667;SDS011;65585;51.166;16.922;2024-03-02T13:54:39;18.98;;;13.20;;
76667;SDS011;65585;51.166;16.922;2024-03-02T13:57:05;21.38;;;12.95;;
76667;SDS011;65585;51.166;16.922;2024-03-02T13:59:32;22.67;;;14.18;;
76667;SDS011;65585;51.166;16.922;2024-03-02T14:02:00;22.63;;;14.93;;
76667;SDS011;65585;51.166;16.922;2024-03-02T14:04:36;23.38;;;15.27;;
76667;SDS011;65585;51.166;16.922;2024-03-02T14:07:02;20.85;;;13.93;;
76667;SDS011;65585;51.166;16.922;2024-03-02T14:09:31;26.50;;;15.45;;
76667;SDS011;65585;51.166;16.922;2024-03-02T14:11:57;22.17;;;14.02;;
76667;SDS011;65585;51.166;16.922;2024-03-02T14:14:26;25.98;;;15.88;;
76667;SDS011;65585;51.166;16.922;2024-03-02T14:16:52;24.90;;;15.73;;
76667;SDS011;65585;51.166;16.922;2024-03-02T14:19:19;22.23;;;14.45;;
76667;SDS011;65585;51.166;16.922;2024-03-02T14:21:47;24.08;;;15.55;;
76667;SDS011;65585;51.166;16.922;2024-03-02T14:24:13;23.02;;;15.73;;
76667;SDS011;65585;51.166;16.922;2024-03-02T14:26:39;29.95;;;16.27;;
76667;SDS011;65585;51.166;16.922;2024-03-02T14:29:06;22.35;;;15.43;;
76667;SDS011;65585;51.166;16.922;2024-03-02T14:31:32;25.90;;;15.55;;
76667;SDS011;65585;51.166;16.922;2024-03-02T14:33:58;22.55;;;14.35;;
76667;SDS011;65585;51.166;16.922;2024-03-02T14:36:25;23.58;;;15.80;;